Impacts TAF Board INFO
FOR SITUATIONAL AWARENESS. NOT TO BE USED FOR FLIGHT PLANNING PURPOSES.
IDs:

KMEM - Memphis Intl, TN, US

Issued at 0304 UTC 22 Jan 2018
Updated at 0435 UTC 22 Jan 2018
Potential Impact None Slight Moderate High
Time<<23/05Z 23/06Z 23/07Z 23/08Z 23/09Z 23/10Z 23/11Z 23/12Z 23/13Z 23/14Z 23/15Z 23/16Z 23/17Z
Type PRVL
VIS >6
CIG --
Cover SCT
FltCat VFR
WX --
WDir 250
WSpd 12
WGst 18

Raw TAF
KMEM 220304Z 2203/2306 16010G16KT P6SM FEW040 BKN060
  FM220500 17018G26KT P6SM VCSH SCT025 BKN050
  FM221000 18020G27KT 3SM SHRA BR VCTS OVC020CB
  FM221200 19012G20KT P6SM -SHRA BKN025
  FM221500 21014G21KT P6SM FEW030 BKN090
  FM221700 23018G28KT P6SM FEW100
  FM230000 25012G18KT P6SM SCT060


METAR Board
Radar Display
Forecast Discussion

FOR SITUATIONAL AWARENESS. NOT TO BE USED FOR FLIGHT PLANNING PURPOSES.